Time;durP1;ratioP1;P1;durP2;ratioP2;P2;SDS_P1;SDS_P2;PMS_P1;PMS_P2;Temp;Humidity;BMP_temperature;BMP_pressure;BME280_temperature;BME280_humidity;BME280_pressure;Samples;Min_cycle;Max_cycle;Signal;HPM_P1;HPM_P2
2023/07/27 00:01:43;;;;;;;18.45;3.45;;;46.10;31.70;;;;;;5067568;28;20013;-66
2023/07/27 00:04:09;;;;;;;12.95;3.67;;;46.00;32.40;;;;;;5072017;28;20052;-68
2023/07/27 00:06:36;;;;;;;16.83;4.40;;;46.00;32.10;;;;;;5072684;28;20111;-68
2023/07/27 00:09:02;;;;;;;14.82;4.00;;;45.80;32.20;;;;;;5073671;28;20407;-67
2023/07/27 00:11:29;;;;;;;14.00;4.00;;;45.80;32.90;;;;;;5071546;28;20425;-66
2023/07/27 00:13:55;;;;;;;19.92;4.10;;;45.70;33.40;;;;;;5070576;28;20478;-66
2023/07/27 00:16:21;;;;;;;15.60;4.05;;;45.70;33.40;;;;;;5079697;28;20524;-65
2023/07/27 00:18:48;;;;;;;22.30;4.05;;;45.70;33.10;;;;;;5073590;28;20100;-66
2023/07/27 00:21:14;;;;;;;15.15;4.15;;;45.70;33.40;;;;;;5076767;28;20062;-66
2023/07/27 00:23:41;;;;;;;15.80;4.45;;;45.60;33.40;;;;;;5075185;28;20066;-64
2023/07/27 00:26:07;;;;;;;20.25;4.55;;;45.60;33.20;;;;;;5068393;28;20485;-67
2023/07/27 00:28:33;;;;;;;21.40;3.70;;;45.50;33.40;;;;;;5072837;28;20023;-71
2023/07/27 00:31:00;;;;;;;17.88;3.53;;;45.40;33.60;;;;;;5071895;28;20378;-65
2023/07/27 00:33:27;;;;;;;15.98;3.50;;;45.20;33.60;;;;;;5070711;28;20027;-67
2023/07/27 00:35:57;;;;;;;18.00;4.10;;;45.00;33.60;;;;;;5069205;28;20051;-68
2023/07/27 00:38:24;;;;;;;16.42;4.45;;;44.90;33.60;;;;;;5066714;28;20510;-67
2023/07/27 00:40:51;;;;;;;12.40;3.40;;;44.80;33.30;;;;;;5070680;28;20481;-66
2023/07/27 00:43:17;;;;;;;18.05;3.90;;;44.70;33.60;;;;;;5073123;28;20044;-66
2023/07/27 00:45:44;;;;;;;20.48;3.97;;;44.70;33.80;;;;;;5067282;28;20012;-68
2023/07/27 00:48:10;;;;;;;27.13;4.30;;;44.60;34.00;;;;;;5066660;28;20074;-67
2023/07/27 00:50:38;;;;;;;24.25;4.80;;;44.40;35.20;;;;;;5074101;28;20115;-65
2023/07/27 00:53:08;;;;;;;22.45;5.20;;;44.30;37.10;;;;;;5070298;28;20435;-65
2023/07/27 00:55:36;;;;;;;22.52;4.60;;;44.10;38.10;;;;;;5066355;28;20411;-64
2023/07/27 00:58:02;;;;;;;20.88;5.03;;;43.80;38.60;;;;;;5071047;28;20024;-67
2023/07/27 01:00:30;;;;;;;24.70;5.00;;;43.70;39.20;;;;;;5069679;28;20021;-65
2023/07/27 01:02:57;;;;;;;27.10;5.00;;;43.70;39.50;;;;;;5071748;28;20095;-66
2023/07/27 01:05:24;;;;;;;20.05;4.40;;;43.50;39.60;;;;;;5076884;28;20034;-68
2023/07/27 01:07:50;;;;;;;20.55;4.72;;;43.40;39.70;;;;;;5067434;28;20028;-62
2023/07/27 01:10:17;;;;;;;23.75;4.55;;;43.20;40.60;;;;;;5068060;28;20038;-67
2023/07/27 01:13:00;;;;;;;24.35;5.25;;;43.10;40.50;;;;;;5069217;28;20542;-64
2023/07/27 01:15:31;;;;;;;34.25;5.75;;;43.00;40.80;;;;;;5069765;28;20024;-63
2023/07/27 01:18:04;;;;;;;28.45;5.28;;;42.90;41.00;;;;;;5069591;28;20058;-65
2023/07/27 01:20:38;;;;;;;24.90;5.13;;;42.70;41.40;;;;;;5072063;28;20051;-64
2023/07/27 01:23:22;;;;;;;19.15;5.18;;;42.60;42.00;;;;;;5071189;28;20016;-67
2023/07/27 01:26:16;;;;;;;28.88;6.63;;;42.60;43.20;;;;;;5072055;28;20043;-68
2023/07/27 01:29:06;;;;;;;25.95;5.80;;;42.50;43.00;;;;;;5071820;28;20048;-66
2023/07/27 01:31:41;;;;;;;27.77;6.70;;;42.50;42.90;;;;;;5067275;28;20013;-67
2023/07/27 01:34:17;;;;;;;26.30;7.20;;;42.40;42.50;;;;;;5075960;28;20490;-64
2023/07/27 01:36:49;;;;;;;32.53;6.55;;;42.40;42.50;;;;;;5065812;28;20062;-66
2023/07/27 01:39:19;;;;;;;21.80;5.75;;;42.30;43.30;;;;;;5066208;28;20065;-64
2023/07/27 01:41:47;;;;;;;18.00;4.75;;;42.30;43.30;;;;;;5066014;28;20065;-66
2023/07/27 01:44:15;;;;;;;23.63;5.28;;;42.30;43.10;;;;;;5070955;28;20016;-65
2023/07/27 01:46:43;;;;;;;22.00;5.68;;;42.30;42.70;;;;;;5066597;28;20433;-65
2023/07/27 01:49:11;;;;;;;16.70;4.82;;;42.50;42.60;;;;;;5064641;28;20009;-66
2023/07/27 01:51:39;;;;;;;24.40;5.90;;;42.60;42.50;;;;;;5065464;28;20459;-66
2023/07/27 01:54:07;;;;;;;36.65;6.10;;;42.60;42.60;;;;;;5066525;28;20025;-65
2023/07/27 01:56:35;;;;;;;26.40;5.43;;;42.70;42.40;;;;;;5067166;28;20035;-62
2023/07/27 01:59:02;;;;;;;21.65;4.75;;;42.60;42.30;;;;;;5067126;28;20059;-64
2023/07/27 02:01:29;;;;;;;23.92;5.82;;;42.50;42.40;;;;;;5067219;28;20023;-65
2023/07/27 02:03:56;;;;;;;21.55;5.72;;;42.60;42.20;;;;;;5071906;28;20097;-66
2023/07/27 02:06:23;;;;;;;22.50;6.10;;;42.60;41.60;;;;;;5073108;28;20016;-66
2023/07/27 02:08:49;;;;;;;21.40;6.38;;;42.60;41.00;;;;;;5069042;28;20533;-67
2023/07/27 02:11:19;;;;;;;26.15;6.22;;;42.50;41.40;;;;;;5070034;28;20057;-64
2023/07/27 02:14:11;;;;;;;22.90;6.28;;;42.30;41.40;;;;;;5074088;28;20060;-66
2023/07/27 02:16:47;;;;;;;20.38;6.55;;;42.10;42.20;;;;;;5066936;28;20050;-65
2023/07/27 02:19:17;;;;;;;28.23;6.82;;;41.90;42.70;;;;;;5066572;28;20069;-68
2023/07/27 02:21:44;;;;;;;23.77;6.53;;;41.80;42.80;;;;;;5068772;28;20036;-65
2023/07/27 02:24:11;;;;;;;30.38;6.25;;;41.60;42.80;;;;;;5065785;28;20089;-63
2023/07/27 02:26:37;;;;;;;25.10;6.20;;;41.60;43.00;;;;;;5070082;28;20038;-67
2023/07/27 02:29:04;;;;;;;24.85;6.32;;;41.50;43.10;;;;;;5072039;28;20055;-67
2023/07/27 02:31:30;;;;;;;30.23;6.82;;;41.40;43.20;;;;;;5077419;28;20183;-67
2023/07/27 02:33:56;;;;;;;28.05;5.28;;;41.30;43.40;;;;;;5076845;28;20066;-68
2023/07/27 02:36:23;;;;;;;21.73;5.70;;;41.20;43.50;;;;;;5075214;28;20047;-65
2023/07/27 02:38:49;;;;;;;30.08;6.00;;;41.20;43.50;;;;;;5072867;28;20111;-65
2023/07/27 02:41:16;;;;;;;25.05;6.10;;;41.10;43.60;;;;;;5076053;28;20542;-65
2023/07/27 02:43:42;;;;;;;29.50;5.95;;;41.00;43.60;;;;;;5075814;28;20051;-68
2023/07/27 02:46:08;;;;;;;27.23;5.70;;;41.00;43.40;;;;;;5075924;28;20131;-67
2023/07/27 02:48:35;;;;;;;27.55;5.20;;;40.90;43.30;;;;;;5077220;28;20053;-64
2023/07/27 02:51:02;;;;;;;23.70;4.97;;;40.80;43.40;;;;;;5071068;28;20054;-65
2023/07/27 02:53:28;;;;;;;29.70;4.97;;;40.80;43.50;;;;;;5072782;28;20122;-66
2023/07/27 02:55:57;;;;;;;23.33;5.75;;;40.70;43.50;;;;;;5076713;28;20116;-63
2023/07/27 02:58:23;;;;;;;23.95;5.53;;;40.70;43.70;;;;;;5071859;28;20080;-64
2023/07/27 03:00:51;;;;;;;23.85;4.53;;;40.60;43.70;;;;;;5081354;28;20054;-65
2023/07/27 03:03:19;;;;;;;25.40;5.07;;;40.50;43.40;;;;;;5075052;28;20494;-66
2023/07/27 03:05:45;;;;;;;27.88;5.00;;;40.40;43.60;;;;;;5072523;28;20085;-69
2023/07/27 03:08:12;;;;;;;34.97;5.38;;;40.40;43.60;;;;;;5074680;28;20524;-67
2023/07/27 03:10:39;;;;;;;28.20;6.57;;;40.40;43.50;;;;;;5076501;28;20405;-67
2023/07/27 03:13:05;;;;;;;41.10;6.63;;;40.40;43.40;;;;;;5071198;28;20938;-66
2023/07/27 03:15:31;;;;;;;32.40;6.43;;;40.30;43.40;;;;;;5074505;28;20540;-69
2023/07/27 03:17:58;;;;;;;23.98;6.75;;;40.30;43.50;;;;;;5077904;28;20070;-68
2023/07/27 03:20:24;;;;;;;25.48;5.22;;;40.30;43.40;;;;;;5080409;28;20725;-68
2023/07/27 03:22:51;;;;;;;30.60;6.20;;;40.30;43.20;;;;;;5073062;28;20139;-66
2023/07/27 03:25:17;;;;;;;31.58;5.85;;;40.20;43.60;;;;;;5086545;28;20048;-66
2023/07/27 03:27:43;;;;;;;28.60;5.13;;;40.20;43.50;;;;;;5073150;28;20457;-67
2023/07/27 03:30:11;;;;;;;23.92;4.68;;;40.20;43.60;;;;;;5073380;28;20060;-67
2023/07/27 03:32:39;;;;;;;24.08;5.00;;;40.10;43.60;;;;;;5075256;28;20058;-67
2023/07/27 03:35:05;;;;;;;22.25;4.85;;;40.00;43.50;;;;;;5081555;28;21837;-68
2023/07/27 03:37:32;;;;;;;22.77;4.90;;;40.00;43.90;;;;;;5076183;28;20144;-67
2023/07/27 03:39:58;;;;;;;25.02;5.03;;;39.90;43.60;;;;;;5078392;28;20048;-65
2023/07/27 03:42:24;;;;;;;27.60;6.10;;;39.80;44.30;;;;;;5076863;28;20051;-68
2023/07/27 03:44:51;;;;;;;26.25;4.47;;;39.80;44.00;;;;;;5069565;28;20506;-66
2023/07/27 03:47:17;;;;;;;18.13;4.72;;;39.70;44.00;;;;;;5068051;28;20092;-57
2023/07/27 03:49:44;;;;;;;21.08;4.97;;;39.60;41.20;;;;;;5069972;28;20058;-57
2023/07/27 03:52:10;;;;;;;18.95;5.68;;;39.60;37.80;;;;;;5068724;28;20058;-52
2023/07/27 03:54:36;;;;;;;11.68;4.80;;;39.60;35.30;;;;;;5068848;28;20066;-56
2023/07/27 03:57:03;;;;;;;11.32;4.90;;;39.60;33.10;;;;;;5068654;28;20390;-57
2023/07/27 03:59:29;;;;;;;14.98;4.80;;;39.60;33.00;;;;;;5068564;28;20444;-58
2023/07/27 04:01:56;;;;;;;10.93;4.20;;;39.60;32.50;;;;;;5070751;28;20102;-58
2023/07/27 04:04:22;;;;;;;13.05;4.93;;;39.60;30.30;;;;;;5073166;28;20067;-57
2023/07/27 04:06:49;;;;;;;12.43;4.90;;;39.70;30.80;;;;;;5069251;28;20555;-54
2023/07/27 04:09:15;;;;;;;11.90;4.72;;;39.70;30.60;;;;;;5068902;28;20158;-57
2023/07/27 04:11:42;;;;;;;9.45;4.68;;;39.70;30.20;;;;;;5067559;28;20454;-61
2023/07/27 04:14:08;;;;;;;12.70;5.38;;;39.60;29.90;;;;;;5068376;28;20056;-57
2023/07/27 04:16:36;;;;;;;12.68;5.70;;;39.60;30.50;;;;;;5072224;28;20068;-59
2023/07/27 04:19:02;;;;;;;18.20;4.95;;;39.60;30.00;;;;;;5069964;28;20072;-55
2023/07/27 04:21:29;;;;;;;14.98;5.15;;;39.60;29.80;;;;;;5070084;28;20057;-62
2023/07/27 04:23:55;;;;;;;14.43;5.60;;;39.60;29.80;;;;;;5069027;28;20483;-58
2023/07/27 04:26:22;;;;;;;13.52;5.13;;;39.60;29.80;;;;;;5069376;28;20082;-55
2023/07/27 04:28:48;;;;;;;11.45;4.57;;;39.60;29.50;;;;;;5068669;28;20590;-57
2023/07/27 04:31:15;;;;;;;12.43;5.03;;;39.60;29.50;;;;;;5067978;28;20079;-60
2023/07/27 04:33:41;;;;;;;8.32;4.45;;;39.60;29.60;;;;;;5067576;28;20055;-58
2023/07/27 04:36:07;;;;;;;11.82;4.63;;;39.60;29.20;;;;;;5068428;28;20063;-59
2023/07/27 04:38:34;;;;;;;7.70;4.10;;;39.60;29.50;;;;;;5068250;28;20571;-61
2023/07/27 04:41:00;;;;;;;16.50;4.30;;;39.50;29.60;;;;;;5070656;28;20053;-57
2023/07/27 04:43:26;;;;;;;15.77;4.63;;;39.50;29.50;;;;;;5067267;28;20538;-57
2023/07/27 04:45:53;;;;;;;10.65;4.75;;;39.40;29.70;;;;;;5069863;28;20062;-57
2023/07/27 04:48:19;;;;;;;14.93;4.30;;;39.30;29.90;;;;;;5069398;28;20053;-54
2023/07/27 04:50:47;;;;;;;19.13;4.35;;;39.20;30.40;;;;;;5072255;28;20065;-57
2023/07/27 04:53:13;;;;;;;11.90;4.53;;;39.20;30.20;;;;;;5066186;28;20066;-58
2023/07/27 04:55:39;;;;;;;9.82;3.83;;;39.20;30.00;;;;;;5069863;28;20102;-55
2023/07/27 04:58:06;;;;;;;8.02;4.38;;;39.10;30.00;;;;;;5066331;28;20083;-58
2023/07/27 05:00:32;;;;;;;12.82;4.10;;;39.10;30.00;;;;;;5065653;28;20058;-59
2023/07/27 05:02:59;;;;;;;13.07;4.93;;;39.00;30.40;;;;;;5066806;28;20057;-58
2023/07/27 05:05:25;;;;;;;18.35;4.53;;;39.00;30.60;;;;;;5069963;28;20139;-57
2023/07/27 05:07:51;;;;;;;25.23;4.13;;;38.90;30.30;;;;;;5067229;28;20082;-58
2023/07/27 05:10:18;;;;;;;11.65;3.72;;;38.90;30.10;;;;;;5067866;28;20548;-63
2023/07/27 05:12:44;;;;;;;9.13;4.00;;;38.80;29.80;;;;;;5066804;28;20058;-58
2023/07/27 05:15:11;;;;;;;24.88;4.45;;;38.90;29.90;;;;;;5067224;28;20436;-57
2023/07/27 05:17:37;;;;;;;19.42;4.40;;;38.90;30.00;;;;;;5068282;28;20144;-56
2023/07/27 05:20:04;;;;;;;12.93;4.30;;;38.90;30.60;;;;;;5079085;28;20069;-58
2023/07/27 05:22:31;;;;;;;15.15;4.38;;;38.80;30.10;;;;;;5071853;28;20050;-58
2023/07/27 05:24:57;;;;;;;12.65;4.45;;;38.70;31.40;;;;;;5068524;28;20137;-56
2023/07/27 05:27:23;;;;;;;26.60;4.38;;;38.70;31.60;;;;;;5066394;28;20057;-60
2023/07/27 05:29:50;;;;;;;13.55;4.22;;;38.60;31.10;;;;;;5065864;28;20112;-57
2023/07/27 05:32:16;;;;;;;13.73;4.60;;;38.50;31.10;;;;;;5066239;28;20099;-61
2023/07/27 05:34:42;;;;;;;9.50;4.38;;;38.40;30.90;;;;;;5066678;28;20580;-57
2023/07/27 05:37:09;;;;;;;13.73;4.53;;;38.40;31.20;;;;;;5066786;28;20069;-58
2023/07/27 05:39:35;;;;;;;10.55;4.57;;;38.30;31.10;;;;;;5067291;28;20110;-57
2023/07/27 05:42:02;;;;;;;12.45;4.35;;;38.30;32.50;;;;;;5067619;28;20467;-60
2023/07/27 05:44:28;;;;;;;10.80;4.20;;;38.20;32.80;;;;;;5066438;28;20057;-60
2023/07/27 05:46:56;;;;;;;17.33;4.70;;;38.10;32.70;;;;;;5066966;28;20073;-59
2023/07/27 05:49:23;;;;;;;12.95;4.43;;;38.00;31.50;;;;;;5067002;28;20065;-56
2023/07/27 05:51:49;;;;;;;14.63;4.38;;;38.00;31.30;;;;;;5069751;28;20090;-58
2023/07/27 05:54:15;;;;;;;23.25;5.32;;;38.00;31.60;;;;;;5068201;28;20530;-58
2023/07/27 05:56:42;;;;;;;22.55;6.35;;;38.00;33.90;;;;;;5066156;28;20523;-62
2023/07/27 05:59:08;;;;;;;26.70;10.63;;;37.90;37.50;;;;;;5066042;28;20077;-58
2023/07/27 06:01:35;;;;;;;26.73;9.38;;;37.90;39.80;;;;;;5067414;28;20066;-56
2023/07/27 06:04:02;;;;;;;26.55;7.68;;;37.80;41.90;;;;;;5068709;28;20084;-58
2023/07/27 06:06:29;;;;;;;24.35;7.10;;;37.80;43.90;;;;;;5063827;28;20065;-59
2023/07/27 06:08:55;;;;;;;25.08;7.40;;;37.70;44.60;;;;;;5066171;28;20532;-59
2023/07/27 06:11:23;;;;;;;33.85;8.73;;;37.60;46.00;;;;;;5066036;28;20064;-57
2023/07/27 06:13:49;;;;;;;1134.18;76.80;;;37.60;47.60;;;;;;5065587;28;20056;-58
2023/07/27 06:16:16;;;;;;;93.70;11.82;;;37.60;48.40;;;;;;5066312;28;20173;-59
2023/07/27 06:18:42;;;;;;;44.38;8.02;;;37.50;49.50;;;;;;5064709;28;20664;-58
2023/07/27 06:21:09;;;;;;;30.17;6.70;;;37.40;49.50;;;;;;5066607;28;20063;-58
2023/07/27 06:23:35;;;;;;;37.65;8.13;;;37.40;49.90;;;;;;5070853;28;20074;-57
2023/07/27 06:26:02;;;;;;;28.67;7.70;;;37.30;50.00;;;;;;5066320;28;20068;-58
2023/07/27 06:28:28;;;;;;;22.90;7.32;;;37.30;50.30;;;;;;5066885;28;20094;-58
2023/07/27 06:30:55;;;;;;;27.58;9.18;;;37.20;50.70;;;;;;5066678;28;20058;-61
2023/07/27 06:33:21;;;;;;;28.70;7.05;;;37.20;51.20;;;;;;5065704;28;20545;-58
2023/07/27 06:35:48;;;;;;;29.92;6.95;;;37.10;51.90;;;;;;5064021;28;20540;-58
2023/07/27 06:38:14;;;;;;;29.30;6.47;;;37.00;51.80;;;;;;5064616;28;20598;-55
2023/07/27 06:40:40;;;;;;;25.15;6.68;;;36.80;52.00;;;;;;5064200;28;20151;-60
2023/07/27 06:43:07;;;;;;;25.13;6.50;;;36.80;52.30;;;;;;5065186;28;20066;-57
2023/07/27 06:45:34;;;;;;;30.42;6.53;;;36.80;53.00;;;;;;5063817;28;20469;-57
2023/07/27 06:48:00;;;;;;;22.70;6.80;;;36.70;53.10;;;;;;5072174;28;20089;-57
2023/07/27 06:50:26;;;;;;;21.40;6.05;;;36.70;53.60;;;;;;5065352;28;20491;-57
2023/07/27 06:52:53;;;;;;;17.65;5.80;;;36.60;54.10;;;;;;5065165;28;20539;-57
2023/07/27 06:55:19;;;;;;;24.00;5.72;;;36.50;53.80;;;;;;5065689;28;20436;-59
2023/07/27 06:57:46;;;;;;;23.05;6.50;;;36.50;54.10;;;;;;5067579;28;20961;-58
2023/07/27 07:00:13;;;;;;;21.27;6.18;;;36.50;54.40;;;;;;5065563;28;20076;-58
2023/07/27 07:02:40;;;;;;;27.65;7.38;;;36.40;55.00;;;;;;5064064;28;20438;-58
2023/07/27 07:05:07;;;;;;;31.17;6.43;;;36.40;55.40;;;;;;5068470;28;20101;-60
2023/07/27 07:07:33;;;;;;;21.75;6.80;;;36.30;55.60;;;;;;5064332;28;20066;-57
2023/07/27 07:09:59;;;;;;;19.33;6.05;;;36.20;56.20;;;;;;5063775;28;20072;-59
2023/07/27 07:12:26;;;;;;;28.33;6.95;;;36.20;56.70;;;;;;5065331;28;20074;-57
2023/07/27 07:14:52;;;;;;;22.30;6.18;;;36.10;57.10;;;;;;5066144;28;20496;-57
2023/07/27 07:17:19;;;;;;;27.30;6.72;;;36.00;57.20;;;;;;5066931;28;20564;-59
2023/07/27 07:19:45;;;;;;;18.40;6.35;;;36.00;57.30;;;;;;5068704;28;20184;-57
2023/07/27 07:22:11;;;;;;;20.17;5.55;;;35.90;57.50;;;;;;5068809;28;20070;-60
2023/07/27 07:24:38;;;;;;;21.75;5.65;;;35.90;57.70;;;;;;5069041;28;20461;-60
2023/07/27 07:27:04;;;;;;;21.25;5.60;;;35.80;58.00;;;;;;5069798;28;20463;-57
2023/07/27 07:29:31;;;;;;;26.65;6.40;;;35.80;58.40;;;;;;5069186;28;20084;-59
2023/07/27 07:31:57;;;;;;;22.98;6.07;;;35.80;58.90;;;;;;5074489;28;20109;-57
2023/07/27 07:34:24;;;;;;;29.15;6.78;;;35.80;59.40;;;;;;5068659;28;20081;-56
2023/07/27 07:36:51;;;;;;;23.88;6.60;;;35.80;60.10;;;;;;5068990;28;20676;-58
2023/07/27 07:39:17;;;;;;;25.48;6.85;;;35.70;60.70;;;;;;5068575;28;20142;-59
2023/07/27 07:41:43;;;;;;;18.90;6.07;;;35.70;61.30;;;;;;5069494;28;21551;-59
2023/07/27 07:44:10;;;;;;;20.15;6.50;;;35.50;62.00;;;;;;5068128;28;20489;-57
2023/07/27 07:46:36;;;;;;;20.70;6.43;;;35.50;63.00;;;;;;5068527;28;20403;-56
2023/07/27 07:49:02;;;;;;;19.88;6.15;;;35.40;62.90;;;;;;5068809;28;20104;-56
2023/07/27 07:51:29;;;;;;;25.23;6.68;;;35.40;63.60;;;;;;5068445;28;20094;-57
2023/07/27 07:53:55;;;;;;;26.65;7.22;;;35.30;63.20;;;;;;5070479;28;20082;-58
2023/07/27 07:56:22;;;;;;;24.13;6.30;;;35.20;63.50;;;;;;5068442;28;20088;-56
2023/07/27 07:58:48;;;;;;;26.85;7.40;;;35.20;63.90;;;;;;5067886;28;20099;-62
2023/07/27 08:01:14;;;;;;;30.88;7.40;;;35.20;63.60;;;;;;5070362;28;20097;-62
2023/07/27 08:03:41;;;;;;;36.03;7.15;;;35.80;62.40;;;;;;5066968;28;20071;-64
2023/07/27 08:06:10;;;;;;;91.50;9.35;;;36.10;61.50;;;;;;5070774;28;20125;-63
2023/07/27 08:08:36;;;;;;;22.10;6.38;;;36.30;60.50;;;;;;5068510;28;20067;-62
2023/07/27 08:11:03;;;;;;;16.23;5.53;;;36.50;59.60;;;;;;5067554;28;20105;-64
2023/07/27 08:13:31;;;;;;;17.25;5.80;;;36.60;59.60;;;;;;5065820;28;20073;-62
2023/07/27 08:15:58;;;;;;;25.98;7.22;;;36.50;60.10;;;;;;5067006;28;20082;-61
2023/07/27 08:18:24;;;;;;;18.58;5.28;;;36.50;60.00;;;;;;5065957;28;20101;-62
2023/07/27 08:21:05;;;;;;;19.73;5.75;;;36.60;59.60;;;;;;5067859;28;20070;-61
2023/07/27 08:23:32;;;;;;;24.45;5.45;;;36.50;60.30;;;;;;5067401;28;20079;-62
2023/07/27 08:26:00;;;;;;;20.80;6.15;;;36.40;60.60;;;;;;5067289;28;20220;-64
2023/07/27 08:28:26;;;;;;;26.88;6.97;;;36.30;60.50;;;;;;5066272;28;20081;-61
2023/07/27 08:30:53;;;;;;;22.98;5.95;;;36.20;60.60;;;;;;5067297;28;20173;-62
2023/07/27 08:33:20;;;;;;;21.35;5.93;;;36.20;60.90;;;;;;5067663;28;20092;-62
2023/07/27 08:35:46;;;;;;;26.17;5.47;;;36.10;60.80;;;;;;5067653;28;20581;-63
2023/07/27 08:38:13;;;;;;;21.65;5.55;;;36.10;61.50;;;;;;5066280;28;20563;-62
2023/07/27 08:40:39;;;;;;;23.52;6.03;;;36.10;62.00;;;;;;5066706;28;20076;-63
2023/07/27 08:43:08;;;;;;;28.83;6.22;;;36.00;61.60;;;;;;5070186;28;20084;-63
2023/07/27 08:45:36;;;;;;;17.48;5.25;;;36.10;61.80;;;;;;5078462;28;20702;-63
2023/07/27 08:48:05;;;;;;;24.58;5.90;;;36.00;62.70;;;;;;5065997;28;20078;-62
2023/07/27 08:50:32;;;;;;;26.98;6.32;;;35.90;62.30;;;;;;5068325;28;20113;-62
2023/07/27 08:52:58;;;;;;;24.98;5.80;;;35.80;63.30;;;;;;5069331;28;20078;-63
2023/07/27 08:55:24;;;;;;;24.77;6.03;;;35.80;64.00;;;;;;5069486;28;20547;-63
2023/07/27 08:57:51;;;;;;;23.63;5.85;;;35.70;64.30;;;;;;5068448;28;20091;-63
2023/07/27 09:00:19;;;;;;;17.98;6.00;;;35.70;64.80;;;;;;5066754;28;20101;-62
2023/07/27 09:02:45;;;;;;;26.45;7.07;;;35.60;65.60;;;;;;5066033;28;20160;-63
2023/07/27 09:05:13;;;;;;;23.83;6.05;;;35.60;66.00;;;;;;5069776;28;20583;-64
2023/07/27 09:07:39;;;;;;;27.05;6.50;;;35.50;66.40;;;;;;5067058;28;20137;-65
2023/07/27 09:10:08;;;;;;;28.73;7.38;;;35.50;67.00;;;;;;5064905;28;20075;-61
2023/07/27 09:12:35;;;;;;;29.17;7.55;;;35.50;67.30;;;;;;5066246;28;20079;-64
2023/07/27 09:15:15;;;;;;;35.20;6.68;;;35.50;67.90;;;;;;5066731;28;20093;-63
2023/07/27 09:17:42;;;;;;;26.70;7.03;;;35.50;68.60;;;;;;5065320;28;20072;-64
2023/07/27 09:20:13;;;;;;;30.58;7.70;;;35.40;69.30;;;;;;5073019;28;20076;-61
2023/07/27 09:22:39;;;;;;;24.58;7.75;;;35.20;69.80;;;;;;5065556;28;20086;-62
2023/07/27 09:25:07;;;;;;;28.60;8.45;;;35.20;70.40;;;;;;5068419;28;20087;-63
2023/07/27 09:27:57;;;;;;;27.90;8.60;;;35.10;71.10;;;;;;5065887;28;20201;-64
2023/07/27 09:30:24;;;;;;;31.10;8.93;;;35.10;72.00;;;;;;5066412;28;20545;-61
2023/07/27 09:32:52;;;;;;;32.15;9.38;;;35.00;72.10;;;;;;5071348;28;20665;-63
2023/07/27 09:35:20;;;;;;;32.70;9.18;;;34.90;72.50;;;;;;5065274;28;20437;-63
2023/07/27 09:37:51;;;;;;;37.45;8.82;;;34.90;73.20;;;;;;5066272;28;20076;-64
2023/07/27 09:40:23;;;;;;;30.30;8.25;;;34.80;74.80;;;;;;5065601;28;20163;-63
2023/07/27 09:42:50;;;;;;;30.52;8.27;;;34.80;75.10;;;;;;5063587;28;20140;-62
2023/07/27 09:45:16;;;;;;;27.08;7.78;;;34.80;76.10;;;;;;5065308;28;20076;-63
2023/07/27 09:47:43;;;;;;;38.42;7.70;;;34.70;76.80;;;;;;5066500;28;20687;-64
2023/07/27 09:50:10;;;;;;;37.03;7.53;;;34.50;78.60;;;;;;5065347;28;20163;-62
2023/07/27 09:52:39;;;;;;;30.60;7.90;;;34.60;79.50;;;;;;5065814;28;20067;-62
2023/07/27 09:55:06;;;;;;;35.90;8.23;;;34.70;80.00;;;;;;5064801;28;20437;-62
2023/07/27 09:57:32;;;;;;;29.40;7.32;;;34.60;80.60;;;;;;5065954;28;20066;-61
2023/07/27 10:00:00;;;;;;;39.85;9.68;;;34.50;81.70;;;;;;5066808;28;20071;-62
2023/07/27 10:02:27;;;;;;;23.52;8.80;;;34.40;82.50;;;;;;5066700;28;20099;-63
2023/07/27 10:04:53;;;;;;;29.65;8.90;;;34.30;83.50;;;;;;5068771;28;20242;-64
2023/07/27 10:07:21;;;;;;;29.95;8.63;;;34.10;84.80;;;;;;5065240;28;20102;-63
2023/07/27 10:10:08;;;;;;;35.47;10.25;;;34.10;86.30;;;;;;5064188;28;20087;-66
2023/07/27 10:12:34;;;;;;;31.17;10.35;;;34.00;87.30;;;;;;5065188;28;20137;-62
2023/07/27 10:15:21;;;;;;;36.70;10.93;;;34.00;88.30;;;;;;5066045;28;20087;-61
2023/07/27 10:17:51;;;;;;;;;;;33.90;88.80;;;;;;5066415;28;20079;-63
2023/07/27 10:20:23;;;;;;;43.67;11.98;;;33.90;89.10;;;;;;5066012;28;20117;-63
2023/07/27 10:23:13;;;;;;;32.20;11.30;;;33.90;89.20;;;;;;5065729;28;20098;-63
2023/07/27 10:26:08;;;;;;;31.75;10.80;;;33.90;89.00;;;;;;5060405;28;20592;-63
2023/07/27 10:28:47;;;;;;;34.70;11.23;;;34.00;87.90;;;;;;5067265;28;20095;-62
2023/07/27 10:31:27;;;;;;;37.10;12.65;;;33.90;88.40;;;;;;5064703;28;20162;-63
2023/07/27 10:34:07;;;;;;;37.20;11.95;;;33.80;89.20;;;;;;5065908;28;20089;-63
2023/07/27 10:36:59;;;;;;;34.05;10.57;;;33.80;89.30;;;;;;5067157;28;20088;-62
2023/07/27 10:39:28;;;;;;;24.33;8.38;;;33.80;88.40;;;;;;5065105;28;20096;-63
2023/07/27 10:41:59;;;;;;;21.95;7.38;;;33.80;87.70;;;;;;5065931;28;20159;-62
2023/07/27 10:44:27;;;;;;;29.02;8.00;;;33.80;86.70;;;;;;5064553;28;20929;-62
2023/07/27 10:46:58;;;;;;;25.85;8.05;;;33.80;86.50;;;;;;5069622;28;20090;-62
2023/07/27 10:49:25;;;;;;;27.30;8.65;;;33.70;86.60;;;;;;5068097;28;20088;-64
2023/07/27 10:51:52;;;;;;;19.63;6.88;;;33.70;86.20;;;;;;5068640;28;20080;-62
2023/07/27 10:54:19;;;;;;;26.90;6.70;;;33.70;86.00;;;;;;5069415;28;20121;-62
2023/07/27 10:56:48;;;;;;;25.70;6.70;;;33.70;85.70;;;;;;5069884;28;20088;-63
2023/07/27 10:59:15;;;;;;;27.98;7.05;;;33.80;85.80;;;;;;5078265;28;20088;-62
2023/07/27 11:01:46;;;;;;;19.33;5.63;;;33.80;85.90;;;;;;5070138;28;20070;-62
2023/07/27 11:04:14;;;;;;;18.85;5.90;;;33.70;86.60;;;;;;5074334;28;20128;-62
2023/07/27 11:06:44;;;;;;;21.52;6.38;;;33.70;87.00;;;;;;5070598;28;20087;-63
2023/07/27 11:09:16;;;;;;;18.50;5.90;;;33.70;87.10;;;;;;5069115;28;20124;-62
2023/07/27 11:11:43;;;;;;;22.67;6.40;;;33.60;87.10;;;;;;5069737;28;20086;-62
2023/07/27 11:14:10;;;;;;;21.30;6.70;;;33.60;87.30;;;;;;5069089;28;20524;-62
2023/07/27 11:16:37;;;;;;;27.70;8.20;;;33.60;87.40;;;;;;5068696;28;20092;-64
2023/07/27 11:19:06;;;;;;;27.52;8.30;;;33.60;87.70;;;;;;5067669;28;20460;-61
2023/07/27 11:21:36;;;;;;;22.88;8.25;;;33.50;87.90;;;;;;5067405;28;20084;-62
2023/07/27 11:24:03;;;;;;;25.35;8.35;;;33.40;88.40;;;;;;5069856;28;20068;-63
2023/07/27 11:26:30;;;;;;;31.90;9.55;;;33.40;89.30;;;;;;5071524;28;20087;-62
2023/07/27 11:28:57;;;;;;;29.70;9.20;;;33.40;89.40;;;;;;5069622;28;20092;-63
2023/07/27 11:31:24;;;;;;;29.35;9.23;;;33.40;89.60;;;;;;5068972;28;20094;-63
2023/07/27 11:33:50;;;;;;;25.05;8.00;;;33.40;89.80;;;;;;5069668;28;20505;-63
2023/07/27 11:36:16;;;;;;;23.23;6.22;;;33.40;89.70;;;;;;5068689;28;20213;-63
2023/07/27 11:38:43;;;;;;;17.55;6.22;;;33.50;90.00;;;;;;5070087;28;20852;-63
2023/07/27 11:41:09;;;;;;;24.85;6.88;;;33.30;90.00;;;;;;5067776;28;20080;-62
2023/07/27 11:43:38;;;;;;;24.08;6.35;;;33.20;90.30;;;;;;5067442;28;20101;-63
2023/07/27 11:46:05;;;;;;;23.40;6.65;;;33.20;90.70;;;;;;5068553;28;20082;-62
2023/07/27 11:48:33;;;;;;;24.05;6.22;;;33.20;91.10;;;;;;5068672;28;20079;-63
2023/07/27 11:51:01;;;;;;;22.33;6.20;;;33.20;91.30;;;;;;5068741;28;20087;-62
2023/07/27 11:53:28;;;;;;;20.13;6.25;;;33.20;91.50;;;;;;5072144;28;20076;-65
2023/07/27 11:55:56;;;;;;;22.45;6.45;;;33.20;91.70;;;;;;5068583;28;20487;-63
2023/07/27 11:58:26;;;;;;;27.92;6.47;;;33.20;91.90;;;;;;5067118;28;20095;-63
2023/07/27 12:00:55;;;;;;;26.45;6.78;;;33.20;92.00;;;;;;5067242;28;20194;-63
2023/07/27 12:03:24;;;;;;;28.45;7.45;;;33.10;92.40;;;;;;5066973;28;20621;-62
2023/07/27 12:05:57;;;;;;;21.10;6.90;;;33.00;92.90;;;;;;5070459;28;20108;-63
2023/07/27 12:08:24;;;;;;;35.58;9.27;;;32.90;93.20;;;;;;5068187;28;20236;-63
2023/07/27 12:10:51;;;;;;;24.92;8.40;;;32.90;93.60;;;;;;5068435;28;20095;-61
2023/07/27 12:13:22;;;;;;;25.17;8.25;;;32.90;93.80;;;;;;5068021;28;20110;-62
2023/07/27 12:15:57;;;;;;;24.80;7.93;;;32.80;94.20;;;;;;5069175;28;20891;-62
2023/07/27 12:18:26;;;;;;;26.60;7.60;;;32.70;94.80;;;;;;5067661;28;20566;-63
2023/07/27 12:20:54;;;;;;;25.73;6.40;;;32.70;95.20;;;;;;5070028;28;20072;-61
2023/07/27 12:23:24;;;;;;;22.02;6.90;;;32.50;95.70;;;;;;5067897;28;20087;-62
2023/07/27 12:25:52;;;;;;;26.42;5.93;;;32.60;96.00;;;;;;5067989;28;20529;-60
2023/07/27 12:28:19;;;;;;;23.35;6.00;;;32.50;96.50;;;;;;5066726;28;20086;-62
2023/07/27 12:30:45;;;;;;;27.50;6.80;;;32.50;96.80;;;;;;5067922;28;20079;-62
2023/07/27 12:33:12;;;;;;;24.15;6.57;;;32.50;97.40;;;;;;5066505;28;20553;-61
2023/07/27 12:35:39;;;;;;;24.88;6.45;;;32.50;97.60;;;;;;5068172;28;20092;-59
2023/07/27 12:38:06;;;;;;;25.77;6.80;;;32.50;97.90;;;;;;5068334;28;20225;-62
2023/07/27 12:40:32;;;;;;;32.10;7.20;;;32.50;98.20;;;;;;5067763;28;21578;-62